createdAt,value
2023-05-03T00:01:09.924Z,3.05
2023-05-03T00:02:44.817Z,2.80
2023-05-03T00:04:18.683Z,2.60
2023-05-03T00:05:50.633Z,2.90
2023-05-03T00:07:23.179Z,3.35
2023-05-03T00:08:55.159Z,3.13
2023-05-03T00:10:27.023Z,2.83
2023-05-03T00:12:00.813Z,3.00
2023-05-03T00:13:32.618Z,2.75
2023-05-03T00:15:05.023Z,2.72
2023-05-03T00:16:37.133Z,3.30
2023-05-03T00:18:09.036Z,3.83
2023-05-03T00:19:40.880Z,2.88
2023-05-03T00:21:12.693Z,2.88
2023-05-03T00:22:44.489Z,2.72
2023-05-03T00:24:16.343Z,2.75
2023-05-03T00:25:56.108Z,2.60
2023-05-03T00:27:29.051Z,2.80
2023-05-03T00:29:01.476Z,2.55
2023-05-03T00:30:33.327Z,2.70
2023-05-03T00:32:05.466Z,2.75
2023-05-03T00:33:38.431Z,2.78
2023-05-03T00:35:10.334Z,2.60
2023-05-03T00:36:42.144Z,2.45
2023-05-03T00:38:16.659Z,2.63
2023-05-03T00:39:48.826Z,2.63
2023-05-03T00:41:20.663Z,2.70
2023-05-03T00:42:52.597Z,2.83
2023-05-03T00:44:24.770Z,2.22
2023-05-03T00:46:08.324Z,2.65
2023-05-03T00:47:47.517Z,2.50
2023-05-03T00:49:19.686Z,2.38
2023-05-03T00:50:51.842Z,2.42
2023-05-03T00:52:23.729Z,2.90
2023-05-03T00:53:56.589Z,2.50
2023-05-03T00:55:30.704Z,2.38
2023-05-03T00:57:04.898Z,2.53
2023-05-03T00:58:40.416Z,2.47
2023-05-03T01:00:13.722Z,2.47
2023-05-03T01:01:53.317Z,2.53
2023-05-03T01:03:25.355Z,2.58
2023-05-03T01:04:57.323Z,2.65
2023-05-03T01:06:38.433Z,2.90
2023-05-03T01:08:37.925Z,2.58
2023-05-03T01:10:26.996Z,2.67
2023-05-03T01:12:23.950Z,2.67
2023-05-03T01:14:27.736Z,2.58
2023-05-03T01:16:24.641Z,2.40
2023-05-03T01:18:03.281Z,2.30
2023-05-03T01:19:44.581Z,2.42
2023-05-03T01:21:18.867Z,2.53
2023-05-03T01:23:02.207Z,2.42
2023-05-03T01:24:37.611Z,2.30
2023-05-03T01:26:35.634Z,2.33
2023-05-03T01:28:07.434Z,2.10
2023-05-03T01:29:39.684Z,2.40
2023-05-03T01:31:43.566Z,2.58
2023-05-03T01:33:31.867Z,2.10
2023-05-03T01:35:35.209Z,2.28
2023-05-03T01:37:10.599Z,2.30
2023-05-03T01:38:43.200Z,2.60
2023-05-03T01:40:19.975Z,2.42
2023-05-03T01:41:53.172Z,2.55
2023-05-03T01:43:25.988Z,2.22
2023-05-03T01:44:58.982Z,2.95
2023-05-03T01:46:32.375Z,2.50
2023-05-03T01:48:15.995Z,2.67
2023-05-03T01:49:47.780Z,2.90
2023-05-03T01:51:19.941Z,2.10
2023-05-03T01:52:53.455Z,2.45
2023-05-03T01:54:25.261Z,2.35
2023-05-03T01:55:57.150Z,3.00
2023-05-03T01:57:28.989Z,2.30
2023-05-03T01:59:02.500Z,2.22
2023-05-03T02:00:34.370Z,2.65
2023-05-03T02:02:06.203Z,2.83
2023-05-03T02:03:38.598Z,2.60
2023-05-03T02:05:11.542Z,2.47
2023-05-03T02:06:43.340Z,2.60
2023-05-03T02:08:15.180Z,2.40
2023-05-03T02:09:47.028Z,2.58
2023-05-03T02:11:18.851Z,2.47
2023-05-03T02:12:50.629Z,2.30
2023-05-03T02:14:22.566Z,2.30
2023-05-03T02:15:55.691Z,2.50
2023-05-03T02:17:28.255Z,2.58
2023-05-03T02:19:00.142Z,2.45
2023-05-03T02:20:36.678Z,2.60
2023-05-03T02:22:08.549Z,2.30
2023-05-03T02:23:40.723Z,2.63
2023-05-03T02:25:12.676Z,2.45
2023-05-03T02:26:44.449Z,2.50
2023-05-03T02:28:16.235Z,2.67
2023-05-03T02:29:48.110Z,2.35
2023-05-03T02:31:20.204Z,2.35
2023-05-03T02:32:52.138Z,2.60
2023-05-03T02:34:27.918Z,2.55
2023-05-03T02:35:59.857Z,2.65
2023-05-03T02:37:32.354Z,2.63
2023-05-03T02:39:05.629Z,2.92
2023-05-03T02:40:38.515Z,2.42
2023-05-03T02:42:10.891Z,2.80
2023-05-03T02:43:42.774Z,2.60
2023-05-03T02:45:15.215Z,2.80
2023-05-03T02:46:47.085Z,2.42
2023-05-03T02:48:20.916Z,2.75
2023-05-03T02:49:52.908Z,2.67
2023-05-03T02:51:24.826Z,2.55
2023-05-03T02:52:56.845Z,2.60
2023-05-03T02:54:29.160Z,2.85
2023-05-03T02:56:01.896Z,3.17
2023-05-03T02:57:34.051Z,2.72
2023-05-03T02:59:06.280Z,3.00
2023-05-03T03:00:38.100Z,2.40
2023-05-03T03:02:09.877Z,2.42
2023-05-03T03:03:43.260Z,2.72
2023-05-03T03:05:15.226Z,2.38
2023-05-03T03:06:53.698Z,2.65
2023-05-03T03:08:25.798Z,2.30
2023-05-03T03:09:59.954Z,2.42
2023-05-03T03:11:31.959Z,2.70
2023-05-03T03:13:03.826Z,2.38
2023-05-03T03:14:41.884Z,2.58
2023-05-03T03:16:15.218Z,2.40
2023-05-03T03:17:47.313Z,2.13
2023-05-03T03:19:19.835Z,2.17
2023-05-03T03:20:51.658Z,2.83
2023-05-03T03:22:25.893Z,2.35
2023-05-03T03:23:57.694Z,2.33
2023-05-03T03:25:29.874Z,2.28
2023-05-03T03:27:03.860Z,2.22
2023-05-03T03:28:36.071Z,2.65
2023-05-03T03:30:13.305Z,2.10
2023-05-03T03:31:56.155Z,2.33
2023-05-03T03:33:28.757Z,2.15
2023-05-03T03:35:08.734Z,2.40
2023-05-03T03:36:40.561Z,2.38
2023-05-03T03:38:12.709Z,2.20
2023-05-03T03:39:52.600Z,2.42
2023-05-03T03:41:24.699Z,2.53
2023-05-03T03:42:58.090Z,1.98
2023-05-03T03:44:31.125Z,2.17
2023-05-03T03:46:03.013Z,2.05
2023-05-03T03:47:34.877Z,2.30
2023-05-03T03:49:08.151Z,2.00
2023-05-03T03:50:41.434Z,2.13
2023-05-03T03:52:14.077Z,2.20
2023-05-03T03:53:45.938Z,2.05
2023-05-03T03:55:18.172Z,1.73
2023-05-03T03:56:52.632Z,2.15
2023-05-03T03:58:24.928Z,2.05
2023-05-03T03:59:58.713Z,2.10
2023-05-03T04:01:32.418Z,2.40
2023-05-03T04:03:07.855Z,1.98
2023-05-03T04:04:39.984Z,2.13
2023-05-03T04:06:12.226Z,2.17
2023-05-03T04:07:44.076Z,2.20
2023-05-03T04:09:17.813Z,2.10
2023-05-03T04:10:50.951Z,2.15
2023-05-03T04:12:23.642Z,2.13
2023-05-03T04:13:55.539Z,2.10
2023-05-03T04:15:27.575Z,2.13
2023-05-03T04:17:02.544Z,2.20
2023-05-03T04:18:34.400Z,1.95
2023-05-03T04:20:11.045Z,1.83
2023-05-03T04:21:45.093Z,2.00
2023-05-03T04:23:17.369Z,2.50
2023-05-03T04:24:49.202Z,1.83
2023-05-03T04:26:31.656Z,1.98
2023-05-03T04:28:09.549Z,1.98
2023-05-03T04:29:45.328Z,1.90
2023-05-03T04:31:19.246Z,1.80
2023-05-03T04:32:54.487Z,2.15
2023-05-03T04:34:30.401Z,2.10
2023-05-03T04:36:02.955Z,2.00
2023-05-03T04:37:35.598Z,1.90
2023-05-03T04:39:07.578Z,1.98
2023-05-03T04:40:41.257Z,1.88
2023-05-03T04:42:18.542Z,1.88
2023-05-03T04:43:50.803Z,2.50
2023-05-03T04:45:22.705Z,2.20
2023-05-03T04:46:54.674Z,1.75
2023-05-03T04:48:27.241Z,1.90
2023-05-03T04:49:59.439Z,1.70
2023-05-03T04:51:32.187Z,1.77
2023-05-03T04:53:04.883Z,2.05
2023-05-03T04:54:39.242Z,1.83
2023-05-03T04:56:11.576Z,1.88
2023-05-03T04:57:45.367Z,2.00
2023-05-03T04:59:18.865Z,1.90
2023-05-03T05:00:51.299Z,1.80
2023-05-03T05:02:30.481Z,1.75
2023-05-03T05:04:03.155Z,1.88
2023-05-03T05:05:42.674Z,1.95
2023-05-03T05:07:16.336Z,1.80
2023-05-03T05:08:51.120Z,1.60
2023-05-03T05:10:23.060Z,1.52
2023-05-03T05:11:57.056Z,1.63
2023-05-03T05:13:30.871Z,2.00
2023-05-03T05:15:02.827Z,1.52
2023-05-03T05:16:34.905Z,1.65
2023-05-03T05:18:07.542Z,1.70
2023-05-03T05:19:39.764Z,1.65
2023-05-03T05:21:12.570Z,1.83
2023-05-03T05:22:44.380Z,1.73
2023-05-03T05:24:16.256Z,1.98
2023-05-03T05:25:49.689Z,1.90
2023-05-03T05:27:22.905Z,1.73
2023-05-03T05:28:57.177Z,1.55
2023-05-03T05:30:28.980Z,1.52
2023-05-03T05:32:03.663Z,1.52
2023-05-03T05:33:35.948Z,1.70
2023-05-03T05:35:08.998Z,1.52
2023-05-03T05:36:41.554Z,1.50
2023-05-03T05:38:17.693Z,1.63
2023-05-03T05:39:50.072Z,1.48
2023-05-03T05:41:23.732Z,1.63
2023-05-03T05:42:55.941Z,1.65
2023-05-03T05:44:30.566Z,1.50
2023-05-03T05:46:02.375Z,1.30
2023-05-03T05:47:34.752Z,1.63
2023-05-03T05:49:07.683Z,1.45
2023-05-03T05:50:39.496Z,1.63
2023-05-03T05:52:15.005Z,1.50
2023-05-03T05:53:47.456Z,1.40
2023-05-03T05:55:21.364Z,1.30
2023-05-03T05:56:54.995Z,1.48
2023-05-03T05:58:27.142Z,1.88
2023-05-03T06:00:01.012Z,1.35
2023-05-03T06:01:34.565Z,1.60
2023-05-03T06:03:06.487Z,1.35
2023-05-03T06:04:38.478Z,1.60
2023-05-03T06:06:11.200Z,1.20
2023-05-03T06:07:43.052Z,1.35
2023-05-03T06:09:24.322Z,1.15
2023-05-03T06:10:59.778Z,1.00
2023-05-03T06:12:33.095Z,1.08
2023-05-03T06:14:09.606Z,2.10
2023-05-03T06:15:43.703Z,1.30
2023-05-03T06:17:15.646Z,1.23
2023-05-03T06:18:47.456Z,1.25
2023-05-03T06:20:19.316Z,1.13
2023-05-03T06:21:52.953Z,1.25
2023-05-03T06:23:24.771Z,1.08
2023-05-03T06:24:58.269Z,1.25
2023-05-03T06:26:30.828Z,1.08
2023-05-03T06:28:02.765Z,1.52
2023-05-03T06:29:37.491Z,0.95
2023-05-03T06:31:09.305Z,1.25
2023-05-03T06:32:42.720Z,1.10
2023-05-03T06:34:20.292Z,1.08
2023-05-03T06:35:52.182Z,1.30
2023-05-03T06:37:24.520Z,1.20
2023-05-03T06:38:56.382Z,1.00
2023-05-03T06:40:28.213Z,1.05
2023-05-03T06:42:00.023Z,1.10
2023-05-03T06:43:39.204Z,1.20
2023-05-03T06:45:11.960Z,1.00
2023-05-03T06:46:43.865Z,1.20
2023-05-03T06:48:15.934Z,1.05
2023-05-03T06:49:48.948Z,1.30
2023-05-03T06:51:22.943Z,1.27
2023-05-03T06:52:54.990Z,1.00
2023-05-03T06:54:26.949Z,1.05
2023-05-03T06:55:59.086Z,1.00
2023-05-03T06:57:30.880Z,1.20
2023-05-03T06:59:03.849Z,0.98
2023-05-03T07:00:36.007Z,1.10
2023-05-03T07:02:08.109Z,0.90
2023-05-03T07:03:41.761Z,1.15
2023-05-03T07:05:13.950Z,0.82
2023-05-03T07:06:55.990Z,1.10
2023-05-03T07:08:28.698Z,0.82
2023-05-03T07:10:00.749Z,1.00
2023-05-03T07:11:34.762Z,0.90
2023-05-03T07:13:06.738Z,1.00
2023-05-03T07:14:40.380Z,0.98
2023-05-03T07:16:12.217Z,1.10
2023-05-03T07:17:44.082Z,0.88
2023-05-03T07:19:16.080Z,0.95
2023-05-03T07:20:48.979Z,0.90
2023-05-03T07:22:27.628Z,1.10
2023-05-03T07:23:59.901Z,1.10
2023-05-03T07:25:32.187Z,1.38
2023-05-03T07:27:04.051Z,0.90
2023-05-03T07:28:35.862Z,1.23
2023-05-03T07:30:08.242Z,1.15
2023-05-03T07:31:40.084Z,1.02
2023-05-03T07:33:12.432Z,1.50
2023-05-03T07:34:44.412Z,1.23
2023-05-03T07:36:16.192Z,1.10
2023-05-03T07:37:47.981Z,1.10
2023-05-03T07:39:19.834Z,1.27
2023-05-03T07:40:51.624Z,1.13
2023-05-03T07:42:25.095Z,1.00
2023-05-03T07:43:56.900Z,1.02
2023-05-03T07:45:28.870Z,0.98
2023-05-03T07:47:00.678Z,0.90
2023-05-03T07:48:32.618Z,1.20
2023-05-03T07:50:06.261Z,0.80
2023-05-03T07:51:39.244Z,1.10
2023-05-03T07:53:12.471Z,0.90
2023-05-03T07:54:45.925Z,1.00
2023-05-03T07:56:17.808Z,0.90
2023-05-03T07:57:49.611Z,0.93
2023-05-03T07:59:21.471Z,0.73
2023-05-03T08:00:53.345Z,0.82
2023-05-03T08:02:25.331Z,1.08
2023-05-03T08:03:58.771Z,1.20
2023-05-03T08:05:30.880Z,1.02
2023-05-03T08:07:03.409Z,1.10
2023-05-03T08:08:36.110Z,1.00
2023-05-03T08:10:08.804Z,1.00
2023-05-03T08:11:43.193Z,1.20
2023-05-03T08:13:15.974Z,1.00
2023-05-03T08:14:47.840Z,1.45
2023-05-03T08:16:20.129Z,1.10
2023-05-03T08:17:52.084Z,0.98
2023-05-03T08:19:24.220Z,1.10
2023-05-03T08:20:56.164Z,1.10
2023-05-03T08:22:28.016Z,1.40
2023-05-03T08:23:59.819Z,1.50
2023-05-03T08:25:31.796Z,1.38
2023-05-03T08:27:03.602Z,1.30
2023-05-03T08:28:35.745Z,1.00
2023-05-03T08:30:08.661Z,1.00
2023-05-03T08:31:41.393Z,1.08
2023-05-03T08:33:13.478Z,1.20
2023-05-03T08:34:45.300Z,1.10
2023-05-03T08:36:17.300Z,1.00
2023-05-03T08:37:49.142Z,0.98
2023-05-03T08:39:20.964Z,1.25
2023-05-03T08:40:55.480Z,1.02
2023-05-03T08:42:30.815Z,1.20
2023-05-03T08:44:05.711Z,1.00
2023-05-03T08:45:37.706Z,0.93
2023-05-03T08:47:09.690Z,1.00
2023-05-03T08:48:42.186Z,1.13
2023-05-03T08:50:15.661Z,1.30
2023-05-03T08:51:48.674Z,1.35
2023-05-03T08:53:21.062Z,1.33
2023-05-03T08:54:52.837Z,1.67
2023-05-03T08:56:33.004Z,0.93
2023-05-03T08:58:11.013Z,1.35
2023-05-03T08:59:50.083Z,1.10
2023-05-03T09:01:22.283Z,1.30
2023-05-03T09:02:54.350Z,0.88
2023-05-03T09:04:34.892Z,1.02
2023-05-03T09:06:22.973Z,0.90
2023-05-03T09:08:05.746Z,1.00
2023-05-03T09:09:37.646Z,0.88
2023-05-03T09:11:23.698Z,1.40
2023-05-03T09:13:01.354Z,1.10
2023-05-03T09:14:43.413Z,0.95
2023-05-03T09:16:29.784Z,1.27
2023-05-03T09:18:16.696Z,0.85
2023-05-03T09:19:53.645Z,1.05
2023-05-03T09:21:25.835Z,1.13
2023-05-03T09:22:57.703Z,1.27
2023-05-03T09:24:29.519Z,1.08
2023-05-03T09:26:01.424Z,1.00
2023-05-03T09:27:33.267Z,1.60
2023-05-03T09:29:05.511Z,0.90
2023-05-03T09:30:37.566Z,1.10
2023-05-03T09:32:10.769Z,1.13
2023-05-03T09:33:42.730Z,0.93
2023-05-03T09:35:15.368Z,1.10
2023-05-03T09:36:47.552Z,1.00
2023-05-03T09:38:27.442Z,1.00
2023-05-03T09:40:08.011Z,1.23
2023-05-03T09:41:39.835Z,1.40
2023-05-03T09:43:13.160Z,1.20
2023-05-03T09:44:49.102Z,1.10
2023-05-03T09:46:21.020Z,1.20
2023-05-03T09:47:54.254Z,1.15
2023-05-03T09:49:26.084Z,1.58
2023-05-03T09:50:58.062Z,1.10
2023-05-03T09:52:30.802Z,1.23
2023-05-03T09:54:03.816Z,1.17
2023-05-03T09:55:37.502Z,0.90
2023-05-03T09:57:09.403Z,1.23
2023-05-03T09:58:42.569Z,1.10
2023-05-03T10:00:17.013Z,1.20
2023-05-03T10:01:49.207Z,1.10
2023-05-03T10:03:44.792Z,1.00
2023-05-03T10:05:18.609Z,1.10
2023-05-03T10:06:52.003Z,1.00
2023-05-03T10:09:12.417Z,1.48
2023-05-03T10:10:46.016Z,1.15
2023-05-03T10:12:18.896Z,1.20
2023-05-03T10:13:50.974Z,1.50
2023-05-03T10:15:23.939Z,1.48
2023-05-03T10:17:08.230Z,1.08
2023-05-03T10:19:07.716Z,1.15
2023-05-03T10:20:50.820Z,1.42
2023-05-03T10:22:22.608Z,1.00
2023-05-03T10:24:09.561Z,1.10
2023-05-03T10:26:11.673Z,1.10
2023-05-03T10:27:51.915Z,1.08
2023-05-03T10:29:36.236Z,1.05
2023-05-03T10:31:44.130Z,1.00
2023-05-03T10:33:16.364Z,0.93
2023-05-03T10:34:48.320Z,1.23
2023-05-03T10:36:20.108Z,0.93
2023-05-03T10:37:52.130Z,1.13
2023-05-03T10:39:24.432Z,1.30
2023-05-03T10:40:57.048Z,0.93
2023-05-03T10:42:28.856Z,0.93
2023-05-03T10:44:00.717Z,1.00
2023-05-03T10:45:33.472Z,1.27
2023-05-03T10:47:15.039Z,0.90
2023-05-03T10:49:19.956Z,0.95
2023-05-03T10:50:52.959Z,2.20
2023-05-03T10:52:40.072Z,1.80
2023-05-03T10:54:12.536Z,1.05
2023-05-03T10:56:05.645Z,1.33
2023-05-03T10:57:40.375Z,1.30
2023-05-03T10:59:12.588Z,1.13
2023-05-03T11:00:45.109Z,0.90
2023-05-03T11:02:23.236Z,1.17
2023-05-03T11:03:55.089Z,1.05
2023-05-03T11:05:28.738Z,1.20
2023-05-03T11:07:01.565Z,1.10
2023-05-03T11:08:37.972Z,1.08
2023-05-03T11:10:17.861Z,0.85
2023-05-03T11:11:49.678Z,0.90
2023-05-03T11:13:21.649Z,1.08
2023-05-03T11:14:53.521Z,1.00
2023-05-03T11:16:26.160Z,0.80
2023-05-03T11:17:58.172Z,0.90
2023-05-03T11:19:30.244Z,0.98
2023-05-03T11:21:02.228Z,0.95
2023-05-03T11:22:34.329Z,1.10
2023-05-03T11:24:06.377Z,1.20
2023-05-03T11:25:39.427Z,1.05
2023-05-03T11:27:14.112Z,2.85
2023-05-03T11:28:45.992Z,2.67
2023-05-03T11:30:18.268Z,2.67
2023-05-03T11:31:51.936Z,5.35
2023-05-03T11:33:23.892Z,3.33
2023-05-03T11:34:56.457Z,1.73
2023-05-03T11:36:30.795Z,1.30
2023-05-03T11:38:03.225Z,3.25
2023-05-03T11:39:36.452Z,2.05
2023-05-03T11:41:19.185Z,1.63
2023-05-03T11:42:59.104Z,1.00
2023-05-03T11:44:31.165Z,1.00
2023-05-03T11:46:03.211Z,1.15
2023-05-03T11:47:37.356Z,1.10
2023-05-03T11:49:10.124Z,1.00
2023-05-03T11:50:46.640Z,0.95
2023-05-03T11:52:26.106Z,0.90
2023-05-03T11:54:06.909Z,0.90
2023-05-03T11:55:48.242Z,0.80
2023-05-03T11:57:21.716Z,0.85
2023-05-03T11:58:57.602Z,0.93
2023-05-03T12:00:30.266Z,0.80
2023-05-03T12:02:04.721Z,0.80
2023-05-03T12:03:36.918Z,1.00
2023-05-03T12:05:10.585Z,0.75
2023-05-03T12:06:44.686Z,0.85
2023-05-03T12:08:20.828Z,0.93
2023-05-03T12:10:06.785Z,0.68
2023-05-03T12:11:48.070Z,1.25
2023-05-03T12:13:34.086Z,0.90
2023-05-03T12:15:07.939Z,0.80
2023-05-03T12:16:52.183Z,0.98
2023-05-03T12:18:24.764Z,0.80
2023-05-03T12:20:42.692Z,1.17
2023-05-03T12:22:25.628Z,1.15
2023-05-03T12:23:58.209Z,0.90
2023-05-03T12:25:34.419Z,0.85
2023-05-03T12:27:08.688Z,1.00
2023-05-03T12:28:40.698Z,1.00
2023-05-03T12:30:13.355Z,0.90
2023-05-03T12:31:49.182Z,0.80
2023-05-03T12:33:22.882Z,0.90
2023-05-03T12:35:01.918Z,1.00
2023-05-03T12:36:37.128Z,0.80
2023-05-03T12:38:10.665Z,1.30
2023-05-03T12:39:46.194Z,2.28
2023-05-03T12:41:52.208Z,1.65
2023-05-03T12:43:16.336Z,0.90
2023-05-03T12:44:48.423Z,0.88
2023-05-03T12:46:33.899Z,1.00
2023-05-03T12:48:06.904Z,12.75
2023-05-03T12:49:39.984Z,14.63
2023-05-03T12:52:46.855Z,2.00
2023-05-03T12:54:19.295Z,1.35
2023-05-03T12:55:52.113Z,1.25
2023-05-03T12:57:24.764Z,0.85
2023-05-03T13:00:35.451Z,0.85
2023-05-03T13:03:53.584Z,0.80
2023-05-03T13:05:37.131Z,0.85
2023-05-03T13:07:13.413Z,0.95
2023-05-03T13:08:50.265Z,0.82
2023-05-03T13:10:23.285Z,0.70
2023-05-03T13:11:55.251Z,0.80
2023-05-03T13:13:28.718Z,0.70
2023-05-03T13:15:03.902Z,0.80
2023-05-03T13:16:38.975Z,1.00
2023-05-03T13:18:10.899Z,0.85
2023-05-03T13:19:47.455Z,0.77
2023-05-03T13:21:19.270Z,1.00
2023-05-03T13:22:51.126Z,0.88
2023-05-03T13:24:22.961Z,1.08
2023-05-03T13:25:57.437Z,0.80
2023-05-03T13:27:30.592Z,0.77
2023-05-03T13:29:02.445Z,0.85
2023-05-03T13:30:34.681Z,0.80
2023-05-03T13:32:07.236Z,0.63
2023-05-03T13:33:39.295Z,1.10
2023-05-03T13:35:11.134Z,0.80
2023-05-03T13:36:43.186Z,1.08
2023-05-03T13:38:14.972Z,0.98
2023-05-03T13:39:47.020Z,0.70
2023-05-03T13:41:20.117Z,0.90
2023-05-03T13:42:51.956Z,1.10
2023-05-03T13:44:26.644Z,1.00
2023-05-03T13:46:02.380Z,0.90
2023-05-03T13:48:05.084Z,1.00
2023-05-03T13:49:26.686Z,0.80
2023-05-03T13:50:58.565Z,0.88
2023-05-03T13:52:30.990Z,1.23
2023-05-03T13:54:06.194Z,1.00
2023-05-03T13:55:38.028Z,0.90
2023-05-03T13:57:09.844Z,0.50
2023-05-03T13:58:41.665Z,0.60
2023-05-03T14:00:14.082Z,0.93
2023-05-03T14:01:48.245Z,0.80
2023-05-03T14:03:20.242Z,0.70
2023-05-03T14:04:53.179Z,0.90
2023-05-03T14:06:25.015Z,0.70
2023-05-03T14:07:57.463Z,0.70
2023-05-03T14:09:30.376Z,0.88
2023-05-03T14:11:04.677Z,1.15
2023-05-03T14:12:38.060Z,0.63
2023-05-03T14:14:09.969Z,0.80
2023-05-03T14:15:43.605Z,0.80
2023-05-03T14:17:15.565Z,0.90
2023-05-03T14:18:52.256Z,0.80
2023-05-03T14:20:24.200Z,0.70
2023-05-03T14:21:59.817Z,0.80
2023-05-03T14:23:31.647Z,0.85
2023-05-03T14:25:03.990Z,0.80
2023-05-03T14:26:37.315Z,0.90
2023-05-03T14:28:09.699Z,0.70
2023-05-03T14:29:41.644Z,0.60
2023-05-03T14:31:13.616Z,0.80
2023-05-03T14:32:45.474Z,0.95
2023-05-03T14:34:17.286Z,0.90
2023-05-03T14:35:49.098Z,1.00
2023-05-03T14:37:21.596Z,0.90
2023-05-03T14:38:53.767Z,0.98
2023-05-03T14:40:25.855Z,0.80
2023-05-03T14:41:57.659Z,1.00
2023-05-03T14:43:29.596Z,0.77
2023-05-03T14:45:02.257Z,0.70
2023-05-03T14:46:36.916Z,0.60
2023-05-03T14:48:08.822Z,0.73
2023-05-03T14:49:41.603Z,0.80
2023-05-03T14:51:15.125Z,1.00
2023-05-03T14:52:47.656Z,0.95
2023-05-03T14:54:20.001Z,1.00
2023-05-03T14:55:53.559Z,0.73
2023-05-03T14:57:25.401Z,0.65
2023-05-03T14:58:57.188Z,0.80
2023-05-03T15:00:29.497Z,0.90
2023-05-03T15:02:02.340Z,0.88
2023-05-03T15:03:34.265Z,0.63
2023-05-03T15:05:07.498Z,0.70
2023-05-03T15:06:39.748Z,1.05
2023-05-03T15:08:19.950Z,1.05
2023-05-03T15:09:51.800Z,0.90
2023-05-03T15:11:23.760Z,0.70
2023-05-03T15:12:55.658Z,0.85
2023-05-03T15:14:27.958Z,0.85
2023-05-03T15:15:59.812Z,1.00
2023-05-03T15:17:31.956Z,1.33
2023-05-03T15:19:04.138Z,0.70
2023-05-03T15:20:36.487Z,0.75
2023-05-03T15:22:08.302Z,0.55
2023-05-03T15:23:40.138Z,0.90
2023-05-03T15:25:12.005Z,0.70
2023-05-03T15:26:44.459Z,0.80
2023-05-03T15:28:16.469Z,0.90
2023-05-03T15:29:48.296Z,0.77
2023-05-03T15:31:20.157Z,0.77
2023-05-03T15:32:51.992Z,0.80
2023-05-03T15:34:23.888Z,0.88
2023-05-03T15:35:56.608Z,1.00
2023-05-03T15:37:38.819Z,0.70
2023-05-03T15:39:10.689Z,1.20
2023-05-03T15:40:42.511Z,0.60
2023-05-03T15:42:14.343Z,0.90
2023-05-03T15:43:46.598Z,0.90
2023-05-03T15:45:19.255Z,0.77
2023-05-03T15:46:51.214Z,0.55
2023-05-03T15:48:23.034Z,0.80
2023-05-03T15:49:57.627Z,0.77
2023-05-03T15:51:29.553Z,0.70
2023-05-03T15:53:01.336Z,0.50
2023-05-03T15:54:33.137Z,0.82
2023-05-03T15:56:05.484Z,0.73
2023-05-03T15:57:37.375Z,0.70
2023-05-03T15:59:10.163Z,0.70
2023-05-03T16:00:42.412Z,0.80
2023-05-03T16:02:14.255Z,0.57
2023-05-03T16:03:46.423Z,0.65
2023-05-03T16:05:19.041Z,0.80
2023-05-03T16:06:51.364Z,0.65
2023-05-03T16:08:23.156Z,0.80
2023-05-03T16:09:54.910Z,0.70
2023-05-03T16:11:26.915Z,1.00
2023-05-03T16:12:58.755Z,0.75
2023-05-03T16:14:30.723Z,0.90
2023-05-03T16:16:03.437Z,0.80
2023-05-03T16:17:35.937Z,0.80
2023-05-03T16:19:08.978Z,0.80
2023-05-03T16:20:41.465Z,0.77
2023-05-03T16:22:13.565Z,0.55
2023-05-03T16:23:46.275Z,0.70
2023-05-03T16:25:18.867Z,0.80
2023-05-03T16:26:52.933Z,0.70
2023-05-03T16:28:25.091Z,0.80
2023-05-03T16:29:58.377Z,0.77
2023-05-03T16:31:31.305Z,0.77
2023-05-03T16:33:03.616Z,0.95
2023-05-03T16:34:35.898Z,0.85
2023-05-03T16:36:07.873Z,0.63
2023-05-03T16:37:40.933Z,0.70
2023-05-03T16:39:13.270Z,0.70
2023-05-03T16:40:46.295Z,0.80
2023-05-03T16:42:18.934Z,0.70
2023-05-03T16:43:50.995Z,0.60
2023-05-03T16:45:23.056Z,0.80
2023-05-03T16:46:55.335Z,0.77
2023-05-03T16:48:30.446Z,0.60
2023-05-03T16:50:02.316Z,0.60
2023-05-03T16:51:34.422Z,0.70
2023-05-03T16:53:06.299Z,0.80
2023-05-03T16:54:38.298Z,0.77
2023-05-03T16:56:10.080Z,0.77
2023-05-03T16:57:41.997Z,0.85
2023-05-03T16:59:13.881Z,0.75
2023-05-03T17:00:46.168Z,0.80
2023-05-03T17:02:18.092Z,0.63
2023-05-03T17:03:50.057Z,0.70
2023-05-03T17:05:21.887Z,1.00
2023-05-03T17:06:54.636Z,0.77
2023-05-03T17:08:26.444Z,0.70
2023-05-03T17:09:58.382Z,0.70
2023-05-03T17:11:30.348Z,0.55
2023-05-03T17:13:15.171Z,0.70
2023-05-03T17:14:47.631Z,0.63
2023-05-03T17:16:19.445Z,0.82
2023-05-03T17:17:52.244Z,0.70
2023-05-03T17:19:24.366Z,0.70
2023-05-03T17:21:01.385Z,0.60
2023-05-03T17:22:33.672Z,0.80
2023-05-03T17:24:05.968Z,0.60
2023-05-03T17:25:37.776Z,0.80
2023-05-03T17:27:09.771Z,0.80
2023-05-03T17:28:44.146Z,0.70
2023-05-03T17:30:16.460Z,0.77
2023-05-03T17:31:49.193Z,0.98
2023-05-03T17:33:21.655Z,0.60
2023-05-03T17:34:53.523Z,0.75
2023-05-03T17:36:25.381Z,0.90
2023-05-03T17:37:57.374Z,0.70
2023-05-03T17:39:29.325Z,0.80
2023-05-03T17:41:07.704Z,0.70
2023-05-03T17:42:39.731Z,0.70
2023-05-03T17:44:12.722Z,0.63
2023-05-03T17:45:46.098Z,0.70
2023-05-03T17:47:17.963Z,0.90
2023-05-03T17:48:50.148Z,0.70
2023-05-03T17:50:22.139Z,0.70
2023-05-03T17:51:54.004Z,0.80
2023-05-03T17:53:26.046Z,1.08
2023-05-03T17:54:57.866Z,0.80
2023-05-03T17:56:30.012Z,0.60
2023-05-03T17:58:01.910Z,0.70
2023-05-03T17:59:33.716Z,0.50
2023-05-03T18:01:05.690Z,0.75
2023-05-03T18:02:37.570Z,0.65
2023-05-03T18:04:10.254Z,0.80
2023-05-03T18:05:42.133Z,0.60
2023-05-03T18:07:14.095Z,0.68
2023-05-03T18:08:45.961Z,0.68
2023-05-03T18:10:18.185Z,0.70
2023-05-03T18:11:50.019Z,0.80
2023-05-03T18:13:22.049Z,0.60
2023-05-03T18:14:59.605Z,0.80
2023-05-03T18:16:31.699Z,0.70
2023-05-03T18:18:03.830Z,0.80
2023-05-03T18:19:36.300Z,0.82
2023-05-03T18:21:10.699Z,1.02
2023-05-03T18:22:42.498Z,1.08
2023-05-03T18:24:15.855Z,1.05
2023-05-03T18:25:47.663Z,0.85
2023-05-03T18:27:21.126Z,0.85
2023-05-03T18:28:53.735Z,1.00
2023-05-03T18:30:28.293Z,0.98
2023-05-03T18:32:00.268Z,1.00
2023-05-03T18:33:33.937Z,0.90
2023-05-03T18:35:06.289Z,1.00
2023-05-03T18:36:39.232Z,1.10
2023-05-03T18:38:11.256Z,0.90
2023-05-03T18:39:43.087Z,1.05
2023-05-03T18:41:16.878Z,1.05
2023-05-03T18:42:48.875Z,1.10
2023-05-03T18:44:24.147Z,1.13
2023-05-03T18:45:56.105Z,1.10
2023-05-03T18:47:28.213Z,1.13
2023-05-03T18:49:03.320Z,1.30
2023-05-03T18:50:38.424Z,1.00
2023-05-03T18:52:10.251Z,0.85
2023-05-03T18:53:42.042Z,1.27
2023-05-03T18:55:13.971Z,1.13
2023-05-03T18:56:45.771Z,0.93
2023-05-03T18:58:17.863Z,1.25
2023-05-03T19:00:00.205Z,0.95
2023-05-03T19:01:33.931Z,0.95
2023-05-03T19:03:06.562Z,0.80
2023-05-03T19:04:38.733Z,1.08
2023-05-03T19:06:11.588Z,0.95
2023-05-03T19:07:46.906Z,0.80
2023-05-03T19:09:18.918Z,0.90
2023-05-03T19:10:50.730Z,0.77
2023-05-03T19:12:23.346Z,0.70
2023-05-03T19:13:55.190Z,0.90
2023-05-03T19:15:27.348Z,0.80
2023-05-03T19:16:59.447Z,0.95
2023-05-03T19:18:32.125Z,1.00
2023-05-03T19:20:05.524Z,0.70
2023-05-03T19:21:42.253Z,0.68
2023-05-03T19:23:14.046Z,1.10
2023-05-03T19:24:46.195Z,1.00
2023-05-03T19:26:18.039Z,0.70
2023-05-03T19:27:49.989Z,0.85
2023-05-03T19:29:22.089Z,0.80
2023-05-03T19:30:54.633Z,0.90
2023-05-03T19:32:26.654Z,0.57
2023-05-03T19:33:58.611Z,0.73
2023-05-03T19:35:30.429Z,0.88
2023-05-03T19:37:02.310Z,0.90
2023-05-03T19:38:37.172Z,0.95
2023-05-03T19:40:09.769Z,1.00
2023-05-03T19:41:41.592Z,1.20
2023-05-03T19:43:13.535Z,0.98
2023-05-03T19:44:45.415Z,1.08
2023-05-03T19:46:19.875Z,1.15
2023-05-03T19:47:51.934Z,1.17
2023-05-03T19:49:24.901Z,1.30
2023-05-03T19:50:56.729Z,1.10
2023-05-03T19:52:28.553Z,1.35
2023-05-03T19:54:03.583Z,1.00
2023-05-03T19:55:35.446Z,1.20
2023-05-03T19:57:07.727Z,1.42
2023-05-03T19:58:40.026Z,1.20
2023-05-03T20:00:14.423Z,1.15
2023-05-03T20:01:46.462Z,1.23
2023-05-03T20:03:18.737Z,1.50
2023-05-03T20:04:50.851Z,1.40
2023-05-03T20:06:22.750Z,1.40
2023-05-03T20:07:54.602Z,1.50
2023-05-03T20:09:26.407Z,1.50
2023-05-03T20:10:58.916Z,1.40
2023-05-03T20:12:30.913Z,1.38
2023-05-03T20:14:02.799Z,1.40
2023-05-03T20:15:36.547Z,1.20
2023-05-03T20:17:08.503Z,1.17
2023-05-03T20:18:41.282Z,1.75
2023-05-03T20:20:14.686Z,1.30
2023-05-03T20:21:46.491Z,1.65
2023-05-03T20:23:18.289Z,1.30
2023-05-03T20:24:52.293Z,1.05
2023-05-03T20:26:24.922Z,1.25
2023-05-03T20:27:57.398Z,1.48
2023-05-03T20:29:29.299Z,1.08
2023-05-03T20:31:01.140Z,1.13
2023-05-03T20:32:33.201Z,0.85
2023-05-03T20:34:05.164Z,1.10
2023-05-03T20:35:39.984Z,1.30
2023-05-03T20:37:11.800Z,1.20
2023-05-03T20:38:43.636Z,1.15
2023-05-03T20:40:16.268Z,1.30
2023-05-03T20:41:48.086Z,1.30
2023-05-03T20:43:20.112Z,1.08
2023-05-03T20:44:52.762Z,1.10
2023-05-03T20:46:24.687Z,1.20
2023-05-03T20:47:56.663Z,1.20
2023-05-03T20:49:28.457Z,1.20
2023-05-03T20:51:00.952Z,1.38
2023-05-03T20:52:33.130Z,1.25
2023-05-03T20:54:04.980Z,1.08
2023-05-03T20:55:38.766Z,1.10
2023-05-03T20:57:12.650Z,1.30